Sti Battery — V7DR9 — position and weather

sailwx.info

Track history (hours):
 
Tides and Currents Weather Stations Pressure Air Temp Water Temp Dewpoint Dewpoint Depression Visibility Wind Speed Wind Dir Waves Ship Positions

Sti Battery

Last reported at 2018-Jan-19 02:40 UTC. Time now 2018-Jan-21 05:01 UTC.
Position N 31°06' E 122°18'.

Length 183 m; draft 7.4 m.

Type: Ship (hazmat cat B). MMSI: 538005425.

Date/timePositionNaut miles runAvg speedWind from/ knotsBaromVisibWave heightAir tempDewpointWater temp
2018-Jan-19 02:40N 31°06' E 122°18'3 8.7
2018-Jan-19 02:17N 31°08' E 122°15'3 7.6
2018-Jan-19 01:52N 31°10' E 122°12'410.5
2018-Jan-19 01:29N 31°12' E 122°08'912.6
2018-Jan-19 00:49N 31°15' E 121°59'414.7
2018-Jan-19 00:31N 31°16' E 121°54'2312.4
2018-Jan-18 22:40N 31°26' E 121°30'1 7.8
2018-Jan-18 22:30N 31°27' E 121°28'4 7.7
2018-Jan-18 22:00N 31°30' E 121°25'611.6
2018-Jan-18 21:30N 31°33' E 121°20'713.1
2018-Jan-18 21:00N 31°38' E 121°15'612.4
2018-Jan-18 20:30N 31°42' E 121°09'510.9
2018-Jan-18 20:00N 31°45' E 121°04'3110.1
2018-Jan-18 16:58N 32°01' E 120°33'613.7
2018-Jan-18 16:30N 32°02' E 120°26'  
2018-Jan-12 14:51N 31°46' E 121°03'611.5
2018-Jan-12 14:21N 31°43' E 121°08'411.9
2018-Jan-12 14:00N 31°40' E 121°12'611.8
2018-Jan-12 13:31N 31°36' E 121°17'611.7
2018-Jan-12 13:00N 31°32' E 121°22'611.3
2018-Jan-12 12:30N 31°29' E 121°27'4 8.3
2018-Jan-12 11:59N 31°26' E 121°30'3 6.5
2018-Jan-12 11:30N 31°24' E 121°34'20 9.3
2018-Jan-12 09:23N 31°16' E 121°55'4 9.9
2018-Jan-12 08:58N 31°15' E 121°59'9 8.3
2018-Jan-12 07:54N 31°12' E 122°09'6 7.6
2018-Jan-12 07:08N 31°08' E 122°15'  
Track history (hours):
 
Tides and Currents Weather Stations Pressure Air Temp Water Temp Dewpoint Dewpoint Depression Visibility Wind Speed Wind Dir Waves Ship Positions

Sti Battery

Last reported at 2018-Jan-19 02:40 UTC. Time now 2018-Jan-21 05:01 UTC.
Position N 31°06' E 122°18'.

Length 183 m; draft 7.4 m.

Type: Ship (hazmat cat B). MMSI: 538005425.

Date/timePositionNaut miles runAvg speedWind from/ knotsBaromVisibWave heightAir tempDewpointWater temp
2018-Jan-19 02:40N 31°06' E 122°18'3 8.7
2018-Jan-19 02:17N 31°08' E 122°15'3 7.6
2018-Jan-19 01:52N 31°10' E 122°12'410.5
2018-Jan-19 01:29N 31°12' E 122°08'912.6
2018-Jan-19 00:49N 31°15' E 121°59'414.7
2018-Jan-19 00:31N 31°16' E 121°54'2312.4
2018-Jan-18 22:40N 31°26' E 121°30'1 7.8
2018-Jan-18 22:30N 31°27' E 121°28'4 7.7
2018-Jan-18 22:00N 31°30' E 121°25'611.6
2018-Jan-18 21:30N 31°33' E 121°20'713.1
2018-Jan-18 21:00N 31°38' E 121°15'612.4
2018-Jan-18 20:30N 31°42' E 121°09'510.9
2018-Jan-18 20:00N 31°45' E 121°04'3110.1
2018-Jan-18 16:58N 32°01' E 120°33'613.7
2018-Jan-18 16:30N 32°02' E 120°26'  
2018-Jan-12 14:51N 31°46' E 121°03'611.5
2018-Jan-12 14:21N 31°43' E 121°08'411.9
2018-Jan-12 14:00N 31°40' E 121°12'611.8
2018-Jan-12 13:31N 31°36' E 121°17'611.7
2018-Jan-12 13:00N 31°32' E 121°22'611.3
2018-Jan-12 12:30N 31°29' E 121°27'4 8.3
2018-Jan-12 11:59N 31°26' E 121°30'3 6.5
2018-Jan-12 11:30N 31°24' E 121°34'20 9.3
2018-Jan-12 09:23N 31°16' E 121°55'4 9.9
2018-Jan-12 08:58N 31°15' E 121°59'9 8.3
2018-Jan-12 07:54N 31°12' E 122°09'6 7.6
2018-Jan-12 07:08N 31°08' E 122°15'  

Dump ship's entire track history